Latest Weather Observations for Warra

IDT60801

Issued at 2:02 pm EDT Tuesday 24 January 2017 (issued every 30 minutes, with the page automatically refreshed every 10 minutes)

About weather observations | Map of weather stations | Latest weather observations for TAS | Other Formats
Station Details ID: 097024 Name: WARRA Lat: -43.06 Lon: 146.70 Height: 495.0 m
Data from the previous 72 hours. | See also: Recent months at Warra
Date/Time
EDT
Temp
°C
App
Temp
°C
Dew
Point
°C
Rel
Hum
%
Delta-T
°C
Wind Press
QNH
hPa
Press
MSL
hPa
Rain since
9am
mm
Dir  Spd
km/h
Gust
km/h
Spd
kts
Gust
kts
24/02:00pm 13.0 5.5 4.2 55 4.1 W 33 61 18 33 - - 0.6
24/01:33pm 12.9 6.5 5.3 60 3.6 W 28 50 15 27 - - 0.6
24/01:30pm 13.0 7.5 6.1 63 3.4 W 24 50 13 27 - - 0.6
24/01:07pm 11.1 4.9 6.0 71 2.4 W 28 48 15 26 - - 0.6
24/01:00pm 11.0 5.6 6.2 72 2.3 W 24 48 13 26 - - 0.6
24/12:42pm 10.2 4.1 6.5 78 1.8 W 28 48 15 26 - - 0.6
24/12:30pm 12.1 7.2 5.3 63 3.2 W 20 41 11 22 - - 0.6
24/12:19pm 12.4 6.1 5.6 63 3.3 W 28 61 15 33 - - 0.6
24/12:00pm 11.5 5.5 5.4 66 2.9 W 26 48 14 26 - - 0.6
24/11:30am 11.7 4.8 6.4 70 2.6 W 32 57 17 31 - - 0.6
24/11:00am 11.6 5.9 8.3 80 1.7 W 28 48 15 26 - - 0.6
24/10:30am 10.8 4.7 8.4 85 1.2 W 30 52 16 28 - - 0.6
24/10:10am 10.2 4.5 8.3 88 1.0 W 28 52 15 28 - - 0.4
24/10:00am 9.2 3.8 7.8 91 0.7 WNW 26 48 14 26 - - 0.4
24/09:47am 10.1 4.3 8.0 87 1.0 WNW 28 50 15 27 - - 0.2
24/09:30am 10.3 4.9 8.2 87 1.0 W 26 52 14 28 - - 0.2
24/09:00am 9.9 5.7 8.3 90 0.8 W 20 41 11 22 - - 16.4
24/08:49am 10.2 4.4 8.0 86 1.1 W 28 57 15 31 - - 16.4
24/08:30am 10.0 5.5 8.6 91 0.7 W 22 39 12 21 - - 16.4
24/08:00am 9.3 4.9 9.0 98 0.2 W 22 41 12 22 - - 16.4
24/07:38am 9.3 3.8 9.0 98 0.2 W 28 50 15 27 - - 16.2
24/07:30am 9.5 4.8 9.4 99 0.1 W 24 50 13 27 - - 16.2
24/07:00am 9.6 3.6 8.8 95 0.4 W 30 59 16 32 - - 15.0
24/06:31am 9.5 3.9 8.9 96 0.3 W 28 54 15 29 - - 14.8
24/06:30am 9.5 4.3 8.9 96 0.3 W 26 54 14 29 - - 14.8
24/06:00am 9.8 3.2 8.7 93 0.6 W 33 63 18 34 - - 14.6
24/05:37am 11.7 6.7 10.8 94 0.5 W 28 76 15 41 - - 13.8
24/05:30am 11.7 7.9 11.1 96 0.3 W 22 46 12 25 - - 13.0
24/05:00am 12.9 8.2 12.0 94 0.5 W 28 52 15 28 - - 11.2
24/04:30am 14.4 9.5 13.8 96 0.3 WNW 32 50 17 27 - - 7.2
24/04:06am 14.9 10.9 14.1 95 0.5 WNW 28 52 15 28 - - 5.0
24/04:00am 15.1 11.9 14.3 95 0.5 WNW 24 52 13 28 - - 4.8
24/03:30am 15.4 13.3 15.2 99 0.1 WNW 20 44 11 24 - - 3.6
24/03:00am 16.2 14.7 16.2 100 0.0 NW 19 32 10 17 - - 1.8
24/02:30am 16.6 14.1 16.1 97 0.3 NW 24 41 13 22 - - 1.4
24/02:00am 16.7 14.8 15.7 94 0.6 NW 20 35 11 19 - - 0.8
24/01:30am 17.2 16.6 14.5 84 1.6 NW 11 20 6 11 - - 0.6
24/01:00am 16.7 16.7 14.3 86 1.4 NW 7 13 4 7 - - 0.6
24/12:30am 16.6 16.8 14.1 85 1.5 NW 6 11 3 6 - - 0.6
24/12:00am 16.1 16.0 13.8 86 1.3 NW 7 15 4 8 - - 0.6
 
Date/Time
EDT
Temp
°C
App
Temp
°C
Dew
Point
°C
Rel
Hum
%
Delta-T
°C
Wind Press
QNH
hPa
Press
MSL
hPa
Rain since
9am
mm
Dir  Spd
km/h
Gust
km/h
Spd
kts
Gust
kts
23/11:30pm 16.7 16.4 12.8 78 2.2 SSW 6 9 3 5 - - 0.6
23/11:00pm 17.9 17.5 13.0 73 2.8 WSW 7 13 4 7 - - 0.6
23/10:30pm 18.1 17.3 14.0 77 2.4 NW 11 17 6 9 - - 0.6
23/10:00pm 16.4 16.2 14.6 89 1.1 WNW 9 15 5 8 - - 0.6
23/09:30pm 16.5 16.4 14.9 90 0.9 W 9 13 5 7 - - 0.6
23/09:00pm 17.5 17.9 16.2 92 0.8 WSW 9 13 5 7 - - 0.6
23/08:30pm 17.9 18.7 17.3 96 0.4 WNW 9 11 5 6 - - 0.6
23/08:00pm 18.3 19.4 17.1 93 0.7 NNW 7 11 4 6 - - 0.6
23/07:30pm 20.1 21.5 15.3 74 2.9 N 2 6 1 3 - - 0.0
23/07:00pm 21.3 19.5 12.2 56 5.2 WSW 13 19 7 10 - - 0.0
23/06:30pm 22.3 20.7 12.8 55 5.5 SSW 13 26 7 14 - - 0.0
23/06:00pm 22.7 22.7 15.3 63 4.5 SE 9 15 5 8 - - 0.0
23/05:30pm 23.3 23.6 15.1 60 5.0 SE 7 11 4 6 - - 0.0
23/05:00pm 24.3 24.1 14.7 55 5.8 SE 9 15 5 8 - - 0.0
23/04:30pm 25.2 24.5 12.1 44 7.7 ESE 7 19 4 10 - - 0.0
23/04:00pm 25.2 24.4 12.8 46 7.3 E 9 17 5 9 - - 0.0
23/03:30pm 25.2 25.0 13.1 47 7.2 W 6 20 3 11 - - 0.0
23/03:00pm 24.9 24.2 13.1 48 7.0 SW 9 15 5 8 - - 0.0
23/02:30pm 23.7 22.5 12.7 50 6.5 SW 11 17 6 9 - - 0.0
23/02:00pm 23.8 23.1 12.1 48 6.8 WSW 7 13 4 7 - - 0.0
23/01:30pm 23.5 22.5 12.2 49 6.6 NNW 9 13 5 7 - - 0.0
23/01:00pm 23.4 20.9 11.1 46 7.0 NNW 15 33 8 18 - - 0.0
23/12:30pm 23.1 21.7 12.1 50 6.4 N 11 19 6 10 - - 0.0
23/12:00pm 22.7 21.5 11.7 49 6.3 ENE 9 19 5 10 - - 0.0
23/11:30am 22.2 21.0 12.7 55 5.5 NE 11 20 6 11 - - 0.0
23/11:00am 20.7 18.8 11.9 57 5.0 N 13 20 7 11 - - 0.0
23/10:30am 19.7 18.4 12.5 63 4.1 NNE 11 17 6 9 - - 0.0
23/10:00am 18.5 17.2 11.1 62 4.1 NNE 9 15 5 8 - - 0.0
23/09:30am 17.6 17.4 11.9 69 3.2 NE 4 9 2 5 - - 0.0
23/09:00am 16.1 15.3 11.1 72 2.7 E 6 9 3 5 - - 0.0
23/08:30am 15.8 15.0 11.6 76 2.3 NNE 7 13 4 7 - - 0.0
23/08:00am 14.9 13.9 12.4 85 1.4 NNW 9 17 5 9 - - 0.0
23/07:30am 12.9 12.7 12.9 100 0.0 NW 6 15 3 8 - - 0.0
23/07:00am 10.9 11.2 10.9 100 0.0 CALM 0 0 0 0 - - 0.0
23/06:30am 8.5 7.0 8.5 100 0.0 WNW 6 11 3 6 - - 0.0
23/06:00am 7.9 6.1 7.9 100 0.0 W 7 13 4 7 - - 0.0
23/05:30am 7.0 5.9 7.0 100 0.0 W 2 7 1 4 - - 0.0
23/05:00am 7.7 7.2 7.7 100 0.0 CALM 0 6 0 3 - - 0.0
23/04:30am 7.4 6.8 7.4 100 0.0 CALM 0 0 0 0 - - 0.0
23/04:00am 8.1 7.7 8.1 100 0.0 CALM 0 0 0 0 - - 0.0
23/03:30am 7.4 6.8 7.4 100 0.0 CALM 0 0 0 0 - - 0.0
23/03:00am 8.2 7.8 8.2 100 0.0 CALM 0 0 0 0 - - 0.0
23/02:30am 9.0 7.6 9.0 100 0.0 NNW 6 7 3 4 - - 0.0
23/02:00am 8.9 7.0 8.9 100 0.0 NNW 9 9 5 5 - - 0.0
23/01:30am 8.2 6.5 8.2 100 0.0 NNW 7 7 4 4 - - 0.0
23/01:00am 8.8 8.5 8.8 100 0.0 CALM 0 0 0 0 - - 0.0
23/12:30am 8.8 8.5 8.8 100 0.0 CALM 0 0 0 0 - - 0.0
23/12:00am 9.4 8.1 9.3 99 0.1 NNW 6 7 3 4 - - 0.0
 
Date/Time
EDT
Temp
°C
App
Temp
°C
Dew
Point
°C
Rel
Hum
%
Delta-T
°C
Wind Press
QNH
hPa
Press
MSL
hPa
Rain since
9am
mm
Dir  Spd
km/h
Gust
km/h
Spd
kts
Gust
kts
22/11:30pm 10.2 8.8 9.6 96 0.3 WNW 7 9 4 5 - - 0.0
22/11:00pm 11.5 9.8 9.9 90 0.8 WSW 9 11 5 6 - - 0.0
22/10:30pm 12.7 11.4 10.1 84 1.4 W 7 11 4 6 - - 0.0
22/10:00pm 13.8 11.9 10.4 80 1.8 W 11 17 6 9 - - 0.0
22/09:30pm 14.3 11.7 10.7 79 1.9 W 15 24 8 13 - - 0.0
22/09:00pm 14.6 12.7 10.6 77 2.2 W 11 15 6 8 - - 0.0
22/08:30pm 15.5 14.0 10.5 72 2.7 WSW 9 13 5 7 - - 0.0
22/08:00pm 17.2 15.7 10.6 65 3.6 WSW 9 15 5 8 - - 0.0
22/07:30pm 18.6 16.9 9.9 57 4.7 W 9 17 5 9 - - 0.0
22/07:00pm 20.0 18.2 9.6 51 5.7 W 9 15 5 8 - - 0.0
22/06:30pm 20.4 18.6 9.3 49 6.0 W 9 17 5 9 - - 0.0
22/06:00pm 21.0 18.8 9.3 47 6.4 WSW 11 19 6 10 - - 0.0
22/05:30pm 20.6 18.3 8.9 47 6.3 SW 11 22 6 12 - - 0.0
22/05:00pm 21.2 18.8 8.8 45 6.7 W 11 22 6 12 - - 0.0
22/04:30pm 21.8 18.8 9.3 45 6.9 WNW 15 28 8 15 - - 0.0
22/04:00pm 21.5 18.2 9.4 46 6.6 WNW 17 28 9 15 - - 0.0
22/03:30pm 21.1 19.2 10.6 51 5.9 WSW 11 20 6 11 - - 0.0
22/03:00pm 21.6 19.5 11.3 52 5.8 WNW 13 30 7 16 - - 0.0
22/02:30pm 21.0 19.0 11.6 55 5.3 WNW 13 26 7 14 - - 0.0
22/02:00pm 20.0 18.1 11.8 59 4.7 WNW 13 28 7 15 - - 0.0
22/01:30pm 18.8 16.6 10.9 60 4.4 NNW 13 30 7 16 - - 0.0
22/01:00pm 18.3 17.5 11.8 66 3.7 NW 7 20 4 11 - - 0.0
22/12:30pm 16.8 16.0 11.7 72 2.8 SSW 7 17 4 9 - - 0.0
22/12:00pm 16.8 16.0 11.7 72 2.8 WSW 7 13 4 7 - - 0.0
22/11:30am 15.7 14.2 10.5 71 2.8 SW 9 20 5 11 - - 0.0
22/11:00am 15.5 14.6 10.5 72 2.7 S 6 9 3 5 - - 0.0
22/10:30am 16.3 14.6 9.9 66 3.4 SW 9 15 5 8 - - 0.0
22/10:00am 16.5 15.2 10.1 66 3.5 WSW 7 13 4 7 - - 0.0
22/09:30am 15.3 13.6 9.9 70 2.9 WNW 9 19 5 10 - - 0.0
22/09:00am 14.1 10.1 8.3 68 3.0 NNW 19 32 10 17 - - 0.2
22/08:30am 13.2 10.5 9.1 76 2.1 NW 13 24 7 13 - - 0.2
22/08:00am 10.6 8.9 8.5 87 1.1 W 7 13 4 7 - - 0.2
22/07:30am 10.0 7.9 8.3 89 0.8 W 9 17 5 9 - - 0.2
22/07:00am 10.0 7.1 8.3 89 0.8 NW 13 19 7 10 - - 0.2
22/06:30am 10.2 7.0 8.5 89 0.9 NW 15 26 8 14 - - 0.2
22/06:00am 9.8 6.3 8.6 92 0.6 NW 17 28 9 15 - - 0.2
22/05:30am 9.7 6.1 8.5 92 0.6 WNW 17 24 9 13 - - 0.2
22/05:00am 9.5 6.3 8.3 92 0.6 WNW 15 24 8 13 - - 0.2
22/04:30am 9.5 5.8 8.1 91 0.7 WNW 17 24 9 13 - - 0.2
22/04:00am 9.6 5.6 8.4 92 0.6 WNW 19 24 10 13 - - 0.2
22/03:30am 9.4 6.5 8.2 92 0.6 W 13 22 7 12 - - 0.2
22/03:00am 9.3 6.4 8.2 93 0.5 WNW 13 20 7 11 - - 0.2
22/02:30am 9.0 6.1 8.2 95 0.4 WNW 13 17 7 9 - - 0.2
22/02:00am 9.2 5.9 8.1 93 0.5 NW 15 22 8 12 - - 0.2
22/01:30am 9.3 6.7 7.9 91 0.7 NNW 11 19 6 10 - - 0.2
22/01:00am 9.6 7.4 8.0 90 0.8 NW 9 17 5 9 - - 0.2
22/12:30am 9.6 7.6 8.5 93 0.6 NNW 9 15 5 8 - - 0.2
22/12:00am 9.7 7.3 8.6 93 0.6 NNW 11 17 6 9 - - 0.2
 
Date/Time
EDT
Temp
°C
App
Temp
°C
Dew
Point
°C
Rel
Hum
%
Delta-T
°C
Wind Press
QNH
hPa
Press
MSL
hPa
Rain since
9am
mm
Dir  Spd
km/h
Gust
km/h
Spd
kts
Gust
kts
21/11:30pm 9.7 6.8 8.1 90 0.8 NW 13 20 7 11 - - 0.2
21/11:00pm 10.2 7.7 8.1 87 1.0 NW 11 20 6 11 - - 0.2
21/10:30pm 10.3 7.8 8.1 86 1.1 WNW 11 19 6 10 - - 0.2
21/10:00pm 10.5 8.2 7.6 82 1.4 NW 9 17 5 9 - - 0.2
21/09:30pm 10.4 7.7 7.5 82 1.4 NW 11 17 6 9 - - 0.2
21/09:00pm 10.9 7.2 7.8 81 1.5 W 17 37 9 20 - - 0.2
21/08:30pm 11.7 8.6 7.4 75 2.1 W 13 26 7 14 - - 0.2
21/08:00pm 12.3 10.1 7.8 74 2.3 WSW 9 17 5 9 - - 0.2
21/07:30pm 12.7 10.5 8.0 73 2.4 WNW 9 17 5 9 - - 0.2
21/07:00pm 13.3 10.8 8.4 72 2.5 W 11 22 6 12 - - 0.2
21/06:30pm 14.2 11.4 8.6 69 2.9 WNW 13 22 7 12 - - 0.2
21/06:00pm 14.6 11.8 8.5 67 3.2 W 13 22 7 12 - - 0.2
21/05:30pm 14.7 11.1 8.2 65 3.3 WNW 17 32 9 17 - - 0.2
21/05:00pm 14.2 11.0 8.4 68 3.0 WNW 15 26 8 14 - - 0.2
21/04:30pm 15.0 12.3 8.9 67 3.2 WNW 13 24 7 13 - - 0.2
21/04:00pm 15.5 12.7 8.7 64 3.6 W 13 28 7 15 - - 0.2
21/03:30pm 13.8 10.5 8.2 69 2.9 W 15 26 8 14 - - 0.2
21/03:00pm 14.2 11.6 9.2 72 2.6 W 13 26 7 14 - - 0.2
21/02:30pm 14.4 11.6 8.6 68 3.0 WSW 13 24 7 13 - - 0.2

Other Formats:

Comma delimited format used in spreadsheet applications
http://www.bom.gov.au/fwo/IDT60801/IDT60801.95962.axf

JavaScript Object Notation format (JSON) in row-major order
http://www.bom.gov.au/fwo/IDT60801/IDT60801.95962.json